createdAt,value
2019-03-11T00:00:25.106Z,12.20
2019-03-11T00:02:53.513Z,21.33
2019-03-11T00:05:21.893Z,20.03
2019-03-11T00:07:50.232Z,16.97
2019-03-11T00:10:18.602Z,20.73
2019-03-11T00:12:46.941Z,18.43
2019-03-11T00:15:15.316Z,12.40
2019-03-11T00:17:43.662Z,17.47
2019-03-11T00:20:12.102Z,16.67
2019-03-11T00:22:40.876Z,11.40
2019-03-11T00:25:09.873Z,12.07
2019-03-11T00:27:38.218Z,19.00
2019-03-11T00:30:09.626Z,19.27
2019-03-11T00:32:38.321Z,18.27
2019-03-11T00:35:07.163Z,18.00
2019-03-11T00:37:35.580Z,18.77
2019-03-11T00:40:05.951Z,18.53
2019-03-11T00:42:34.286Z,11.20
2019-03-11T00:45:02.802Z,13.93
2019-03-11T00:47:31.139Z,23.00
2019-03-11T00:49:59.512Z,21.73
2019-03-11T00:52:27.941Z,20.33
2019-03-11T00:54:56.311Z,8.33
2019-03-11T00:57:24.640Z,14.37
2019-03-11T00:59:53.013Z,20.57
2019-03-11T01:02:21.361Z,17.70
2019-03-11T01:04:49.793Z,10.23
2019-03-11T01:07:18.127Z,18.47
2019-03-11T01:09:46.569Z,17.33
2019-03-11T01:12:14.983Z,15.23
2019-03-11T01:14:43.352Z,15.00
2019-03-11T01:17:11.696Z,16.33
2019-03-11T01:19:40.032Z,7.10
2019-03-11T01:22:08.390Z,7.97
2019-03-11T01:24:36.727Z,12.90
2019-03-11T01:27:05.165Z,14.43
2019-03-11T01:29:33.507Z,12.47
2019-03-11T01:32:01.957Z,23.30
2019-03-11T01:34:30.297Z,12.93
2019-03-11T01:36:58.673Z,18.93
2019-03-11T01:39:27.087Z,10.27
2019-03-11T01:41:55.464Z,16.17
2019-03-11T01:44:23.804Z,17.73
2019-03-11T01:46:52.173Z,17.17
2019-03-11T01:49:20.513Z,7.83
2019-03-11T01:51:48.958Z,11.77
2019-03-11T01:54:17.301Z,16.77
2019-03-11T01:56:45.672Z,6.13
2019-03-11T01:59:14.013Z,14.93
2019-03-11T02:01:42.462Z,9.53
2019-03-11T02:04:10.950Z,12.20
2019-03-11T02:06:39.389Z,12.67
2019-03-11T02:09:09.408Z,12.13
2019-03-11T02:11:39.315Z,18.43
2019-03-11T02:14:08.437Z,19.40
2019-03-11T02:16:37.384Z,16.87
2019-03-11T02:19:05.734Z,12.47
2019-03-11T02:21:34.188Z,12.67
2019-03-11T02:24:02.524Z,9.50
2019-03-11T02:26:30.900Z,10.83
2019-03-11T02:28:59.247Z,12.10
2019-03-11T02:31:27.913Z,9.73
2019-03-11T02:33:56.224Z,10.00
2019-03-11T02:36:24.604Z,10.43
2019-03-11T02:38:52.958Z,19.97
2019-03-11T02:41:21.397Z,12.27
2019-03-11T02:43:49.740Z,15.37
2019-03-11T02:46:18.108Z,13.03
2019-03-11T02:48:46.450Z,16.10
2019-03-11T02:51:14.822Z,12.93
2019-03-11T02:53:43.162Z,9.27
2019-03-11T02:56:11.608Z,15.40
2019-03-11T02:58:40.018Z,14.60
2019-03-11T03:01:19.088Z,12.27
2019-03-11T03:04:01.272Z,8.37
2019-03-11T03:06:29.723Z,11.50
2019-03-11T03:08:58.068Z,18.90
2019-03-11T03:11:26.506Z,7.20
2019-03-11T03:13:54.842Z,5.70
2019-03-11T03:16:23.184Z,12.90
2019-03-11T03:18:51.557Z,11.77
2019-03-11T03:21:19.909Z,13.97
2019-03-11T03:23:48.274Z,10.50
2019-03-11T03:26:16.622Z,7.33
2019-03-11T03:28:44.996Z,9.43
2019-03-11T03:31:13.333Z,6.43
2019-03-11T03:33:41.696Z,5.57
2019-03-11T03:36:10.108Z,3.83
2019-03-11T03:38:38.485Z,2.07
2019-03-11T03:41:06.817Z,12.03
2019-03-11T03:43:35.271Z,12.10
2019-03-11T03:46:17.397Z,3.33
2019-03-11T03:48:33.805Z,8.10
2019-03-11T03:51:02.185Z,11.07
2019-03-11T03:53:30.560Z,6.40
2019-03-11T03:55:58.902Z,13.33
2019-03-11T03:58:27.271Z,8.33
2019-03-11T04:00:55.611Z,9.00
2019-03-11T04:03:23.982Z,8.23
2019-03-11T04:05:52.709Z,7.50
2019-03-11T04:08:21.152Z,4.67
2019-03-11T04:10:49.487Z,4.90
2019-03-11T04:13:17.918Z,5.03
2019-03-11T04:15:46.424Z,3.53
2019-03-11T04:18:14.864Z,6.70
2019-03-11T04:20:43.266Z,3.73
2019-03-11T04:23:11.703Z,4.10
2019-03-11T04:25:40.131Z,5.70
2019-03-11T04:28:08.569Z,4.93
2019-03-11T04:30:36.977Z,6.63
2019-03-11T04:33:05.414Z,5.80
2019-03-11T04:35:33.753Z,6.23
2019-03-11T04:38:02.104Z,5.27
2019-03-11T04:40:30.827Z,3.73
2019-03-11T04:42:59.166Z,6.33
2019-03-11T04:45:27.609Z,3.37
2019-03-11T04:47:55.948Z,3.70
2019-03-11T04:50:24.313Z,6.83
2019-03-11T04:52:52.654Z,3.87
2019-03-11T04:55:21.048Z,3.20
2019-03-11T04:57:52.558Z,2.43
2019-03-11T05:00:23.270Z,2.90
2019-03-11T05:02:51.627Z,5.77
2019-03-11T05:05:20.082Z,4.00
2019-03-11T05:07:48.500Z,4.83
2019-03-11T05:10:17.021Z,3.87
2019-03-11T05:12:45.732Z,5.90
2019-03-11T05:15:16.028Z,4.23
2019-03-11T05:17:45.315Z,3.83
2019-03-11T05:20:15.796Z,2.10
2019-03-11T05:22:44.192Z,6.80
2019-03-11T05:25:14.075Z,4.30
2019-03-11T05:27:42.496Z,4.23
2019-03-11T05:30:20.473Z,7.37
2019-03-11T05:32:48.916Z,4.97
2019-03-11T05:35:17.506Z,5.07
2019-03-11T05:37:45.914Z,5.40
2019-03-11T05:40:21.068Z,6.37
2019-03-11T05:42:49.413Z,3.80
2019-03-11T05:45:18.631Z,3.20
2019-03-11T05:47:47.029Z,6.57
2019-03-11T05:50:16.341Z,6.20
2019-03-11T05:52:44.825Z,5.60
2019-03-11T05:55:13.930Z,5.77
2019-03-11T05:57:42.411Z,6.37
2019-03-11T06:00:24.275Z,7.73
2019-03-11T06:02:52.607Z,3.50
2019-03-11T06:05:21.159Z,7.93
2019-03-11T06:07:49.607Z,7.03
2019-03-11T06:10:18.041Z,7.10
2019-03-11T06:12:46.378Z,5.13
2019-03-11T06:15:15.492Z,6.23
2019-03-11T06:17:44.029Z,5.13
2019-03-11T06:20:18.797Z,4.43
2019-03-11T06:22:47.138Z,9.33
2019-03-11T06:25:15.487Z,2.60
2019-03-11T06:27:43.867Z,6.67
2019-03-11T06:30:12.691Z,5.30
2019-03-11T06:32:41.058Z,10.97
2019-03-11T06:35:09.470Z,5.20
2019-03-11T06:37:37.837Z,10.63
2019-03-11T06:40:10.228Z,7.07
2019-03-11T06:42:39.876Z,6.00
2019-03-11T06:45:13.246Z,11.10
2019-03-11T06:47:41.608Z,3.63
2019-03-11T06:50:11.486Z,5.87
2019-03-11T06:52:39.925Z,8.13
2019-03-11T06:55:10.578Z,8.50
2019-03-11T06:57:39.025Z,7.87
2019-03-11T07:00:20.371Z,4.87
2019-03-11T07:02:48.741Z,4.17
2019-03-11T07:05:20.364Z,6.73
2019-03-11T07:07:47.309Z,7.13
2019-03-11T07:10:16.608Z,3.17
2019-03-11T07:12:45.111Z,3.40
2019-03-11T07:15:15.538Z,4.07
2019-03-11T07:17:44.146Z,3.20
2019-03-11T07:20:15.660Z,6.33
2019-03-11T07:22:44.120Z,5.67
2019-03-11T07:25:12.447Z,9.33
2019-03-11T07:27:40.807Z,5.77
2019-03-11T07:30:19.294Z,6.70
2019-03-11T07:32:47.766Z,5.33
2019-03-11T07:35:16.104Z,8.23
2019-03-11T07:37:44.541Z,4.00
2019-03-11T07:40:29.286Z,9.03
2019-03-11T07:42:49.120Z,6.93
2019-03-11T07:45:17.792Z,3.43
2019-03-11T07:47:46.236Z,7.77
2019-03-11T07:50:16.010Z,8.07
2019-03-11T07:52:44.450Z,3.83
2019-03-11T07:55:13.531Z,6.63
2019-03-11T07:57:41.966Z,7.90
2019-03-11T08:00:20.572Z,8.63
2019-03-11T08:02:48.939Z,4.67
2019-03-11T08:05:17.289Z,6.67
2019-03-11T08:07:45.726Z,6.53
2019-03-11T08:10:18.726Z,4.73
2019-03-11T08:12:47.105Z,6.00
2019-03-11T08:15:16.379Z,6.50
2019-03-11T08:17:44.814Z,4.07
2019-03-11T08:20:15.264Z,7.67
2019-03-11T08:22:43.767Z,3.83
2019-03-11T08:25:13.147Z,7.97
2019-03-11T08:27:41.597Z,8.73
2019-03-11T08:30:15.730Z,9.07
2019-03-11T08:32:44.174Z,4.17
2019-03-11T08:35:12.654Z,5.00
2019-03-11T08:37:41.029Z,4.20
2019-03-11T08:40:15.169Z,6.43
2019-03-11T08:42:43.532Z,6.00
2019-03-11T08:45:13.909Z,7.37
2019-03-11T08:47:42.358Z,12.17
2019-03-11T08:50:16.505Z,7.37
2019-03-11T08:52:44.936Z,6.43
2019-03-11T08:55:14.011Z,6.70
2019-03-11T08:57:42.444Z,5.47
2019-03-11T09:00:20.163Z,2.87
2019-03-11T09:02:48.616Z,6.63
2019-03-11T09:05:17.214Z,7.23
2019-03-11T09:07:45.617Z,8.17
2019-03-11T09:10:15.331Z,5.77
2019-03-11T09:12:43.813Z,7.13
2019-03-11T09:15:14.021Z,6.97
2019-03-11T09:17:42.606Z,2.80
2019-03-11T09:20:12.973Z,6.07
2019-03-11T09:22:41.338Z,6.20
2019-03-11T09:25:21.544Z,4.20
2019-03-11T09:27:50.971Z,3.87
2019-03-11T09:30:23.172Z,9.43
2019-03-11T09:32:51.580Z,5.80
2019-03-11T09:35:19.954Z,6.70
2019-03-11T09:37:48.367Z,2.50
2019-03-11T09:40:19.648Z,6.37
2019-03-11T09:42:47.992Z,2.60
2019-03-11T09:45:18.662Z,3.20
2019-03-11T09:47:47.336Z,5.47
2019-03-11T09:50:16.244Z,3.60
2019-03-11T09:52:44.578Z,5.20
2019-03-11T09:55:29.305Z,8.33
2019-03-11T09:57:57.716Z,3.83
2019-03-11T10:00:31.267Z,5.73
2019-03-11T10:02:59.683Z,4.93
2019-03-11T10:05:28.112Z,5.60
2019-03-11T10:07:56.639Z,7.87
2019-03-11T10:10:26.711Z,6.80
2019-03-11T10:12:55.114Z,7.10
2019-03-11T10:15:23.854Z,5.17
2019-03-11T10:17:52.192Z,7.17
2019-03-11T10:20:20.995Z,6.13
2019-03-11T10:22:49.504Z,2.57
2019-03-11T10:25:18.820Z,6.53
2019-03-11T10:27:47.294Z,9.33
2019-03-11T10:30:22.494Z,7.73
2019-03-11T10:32:50.900Z,4.13
2019-03-11T10:35:31.275Z,3.37
2019-03-11T10:37:50.444Z,4.80
2019-03-11T10:40:26.337Z,6.20
2019-03-11T10:42:55.548Z,4.80
2019-03-11T10:45:31.134Z,6.87
2019-03-11T10:47:54.137Z,5.73
2019-03-11T10:50:22.664Z,5.70
2019-03-11T10:52:51.065Z,5.73
2019-03-11T10:55:22.608Z,3.83
2019-03-11T10:57:50.946Z,8.50
2019-03-11T11:00:27.705Z,5.53
2019-03-11T11:02:56.183Z,5.97
2019-03-11T11:05:24.617Z,3.73
2019-03-11T11:07:53.149Z,3.67
2019-03-11T11:10:21.589Z,4.63
2019-03-11T11:12:50.097Z,3.53
2019-03-11T11:15:26.459Z,6.17
2019-03-11T11:17:54.870Z,3.13
2019-03-11T11:20:24.082Z,5.37
2019-03-11T11:22:53.651Z,4.27
2019-03-11T11:25:23.662Z,3.90
2019-03-11T11:27:52.138Z,3.33
2019-03-11T11:30:26.147Z,5.13
2019-03-11T11:32:54.728Z,2.17
2019-03-11T11:35:23.164Z,4.80
2019-03-11T11:37:52.267Z,5.87
2019-03-11T11:40:22.672Z,6.03
2019-03-11T11:42:51.352Z,4.90
2019-03-11T11:45:23.803Z,4.13
2019-03-11T11:47:52.310Z,4.70
2019-03-11T11:50:21.899Z,4.07
2019-03-11T11:52:50.500Z,5.47
2019-03-11T11:55:20.283Z,3.60
2019-03-11T11:57:48.729Z,5.47
2019-03-11T12:00:26.466Z,5.43
2019-03-11T12:02:54.897Z,4.50
2019-03-11T12:05:23.381Z,4.07
2019-03-11T12:07:51.987Z,2.17
2019-03-11T12:10:25.673Z,3.57
2019-03-11T12:12:54.112Z,3.23
2019-03-11T12:15:22.590Z,5.20
2019-03-11T12:17:51.031Z,3.57
2019-03-11T12:20:26.803Z,3.30
2019-03-11T12:22:55.315Z,2.40
2019-03-11T12:25:23.718Z,1.57
2019-03-11T12:27:54.233Z,1.40
2019-03-11T12:30:27.236Z,3.90
2019-03-11T12:32:58.227Z,2.03
2019-03-11T12:35:26.699Z,5.43
2019-03-11T12:37:55.213Z,3.10
2019-03-11T12:40:23.692Z,3.23
2019-03-11T12:42:52.070Z,3.57
2019-03-11T12:45:21.645Z,5.03
2019-03-11T12:47:50.282Z,2.63
2019-03-11T12:50:24.662Z,3.37
2019-03-11T12:52:53.205Z,2.77
2019-03-11T12:55:22.026Z,3.03
2019-03-11T12:57:50.526Z,2.57
2019-03-11T13:00:20.203Z,0.97
2019-03-11T13:02:48.909Z,2.50
2019-03-11T13:05:17.787Z,1.30
2019-03-11T13:07:46.394Z,4.00
2019-03-11T13:10:20.515Z,4.57
2019-03-11T13:12:49.332Z,2.07
2019-03-11T13:15:18.035Z,2.03
2019-03-11T13:17:46.732Z,3.47
2019-03-11T13:20:26.725Z,2.20
2019-03-11T13:22:55.099Z,2.80
2019-03-11T13:25:23.516Z,2.33
2019-03-11T13:27:52.158Z,1.80
2019-03-11T13:30:20.780Z,2.17
2019-03-11T13:32:49.353Z,2.30
2019-03-11T13:35:17.770Z,1.77
2019-03-11T13:37:46.414Z,1.63
2019-03-11T13:40:18.086Z,1.73
2019-03-11T13:42:46.455Z,2.67
2019-03-11T13:45:18.547Z,2.20
2019-03-11T13:47:47.108Z,1.67
2019-03-11T13:50:18.016Z,2.67
2019-03-11T13:52:46.523Z,1.40
2019-03-11T13:55:16.207Z,1.43
2019-03-11T13:57:44.721Z,3.23
2019-03-11T14:00:16.570Z,2.03
2019-03-11T14:02:44.913Z,2.40
2019-03-11T14:05:13.433Z,2.37
2019-03-11T14:07:41.771Z,2.90
2019-03-11T14:10:13.925Z,2.30
2019-03-11T14:12:42.344Z,2.10
2019-03-11T14:15:13.881Z,5.53
2019-03-11T14:17:42.298Z,2.37
2019-03-11T14:20:13.077Z,4.33
2019-03-11T14:22:41.417Z,1.93
2019-03-11T14:25:11.946Z,2.73
2019-03-11T14:27:40.404Z,3.60
2019-03-11T14:30:13.854Z,1.27
2019-03-11T14:32:42.271Z,5.57
2019-03-11T14:35:11.982Z,1.63
2019-03-11T14:37:40.468Z,2.53
2019-03-11T14:40:12.050Z,6.23
2019-03-11T14:42:40.477Z,1.40
2019-03-11T14:45:14.439Z,7.63
2019-03-11T14:47:42.779Z,2.53
2019-03-11T14:50:13.298Z,3.50
2019-03-11T14:52:41.743Z,2.10
2019-03-11T14:55:11.642Z,4.23
2019-03-11T14:57:39.978Z,1.73
2019-03-11T15:00:14.239Z,1.37
2019-03-11T15:02:42.663Z,3.57
2019-03-11T15:05:11.218Z,4.20
2019-03-11T15:07:39.701Z,3.70
2019-03-11T15:10:10.514Z,4.33
2019-03-11T15:12:38.987Z,2.07
2019-03-11T15:15:10.370Z,4.97
2019-03-11T15:17:38.711Z,1.57
2019-03-11T15:20:08.430Z,2.13
2019-03-11T15:22:36.776Z,5.30
2019-03-11T15:25:07.998Z,3.17
2019-03-11T15:27:37.470Z,4.87
2019-03-11T15:30:09.249Z,2.37
2019-03-11T15:32:37.589Z,2.37
2019-03-11T15:35:07.809Z,1.90
2019-03-11T15:37:36.319Z,1.67
2019-03-11T15:40:07.438Z,2.37
2019-03-11T15:42:35.790Z,3.70
2019-03-11T15:45:04.901Z,2.57
2019-03-11T15:47:33.305Z,1.90
2019-03-11T15:50:01.791Z,2.17
2019-03-11T15:52:30.210Z,4.13
2019-03-11T15:54:58.502Z,3.10
2019-03-11T15:57:26.876Z,1.60
2019-03-11T15:59:55.217Z,3.07
2019-03-11T16:02:23.668Z,2.87
2019-03-11T16:04:52.091Z,4.07
2019-03-11T16:07:20.544Z,3.83
2019-03-11T16:09:50.425Z,3.13
2019-03-11T16:12:18.803Z,4.17
2019-03-11T16:14:49.633Z,2.40
2019-03-11T16:17:17.323Z,3.93
2019-03-11T16:19:45.816Z,1.40
2019-03-11T16:22:22.835Z,2.77
2019-03-11T16:24:46.407Z,4.03
2019-03-11T16:27:14.870Z,3.70
2019-03-11T16:29:43.213Z,3.30
2019-03-11T16:32:12.174Z,2.50
2019-03-11T16:34:40.725Z,2.03
2019-03-11T16:37:09.100Z,1.93
2019-03-11T16:39:37.444Z,5.30
2019-03-11T16:42:05.886Z,3.17
2019-03-11T16:44:34.228Z,3.33
2019-03-11T16:47:02.684Z,2.10
2019-03-11T16:49:31.027Z,1.87
2019-03-11T16:52:01.464Z,2.27
2019-03-11T16:54:30.574Z,2.53
2019-03-11T16:56:59.367Z,1.80
2019-03-11T16:59:28.579Z,2.07
2019-03-11T17:02:01.825Z,2.43
2019-03-11T17:04:30.553Z,1.63
2019-03-11T17:06:58.948Z,1.87
2019-03-11T17:09:27.421Z,1.67
2019-03-11T17:11:55.790Z,3.03
2019-03-11T17:14:25.167Z,3.03
2019-03-11T17:16:53.609Z,3.80
2019-03-11T17:19:21.960Z,3.83
2019-03-11T17:21:50.339Z,2.00
2019-03-11T17:24:18.751Z,2.83
2019-03-11T17:26:47.123Z,1.50
2019-03-11T17:29:15.535Z,1.60
2019-03-11T17:31:44.043Z,3.63
2019-03-11T17:34:12.381Z,3.40
2019-03-11T17:36:42.554Z,4.97
2019-03-11T17:39:10.894Z,3.67
2019-03-11T17:41:39.461Z,2.67
2019-03-11T17:44:08.653Z,4.13
2019-03-11T17:46:37.059Z,3.67
2019-03-11T17:49:05.432Z,2.83
2019-03-11T17:51:34.801Z,3.47
2019-03-11T17:54:03.316Z,3.70
2019-03-11T17:56:31.661Z,2.60
2019-03-11T17:59:00.106Z,3.77
2019-03-11T18:01:28.661Z,4.53
2019-03-11T18:03:57.038Z,5.10
2019-03-11T18:06:25.449Z,2.53
2019-03-11T18:08:53.825Z,4.27
2019-03-11T18:11:22.171Z,3.40
2019-03-11T18:13:50.562Z,2.53
2019-03-11T18:16:18.903Z,4.43
2019-03-11T18:18:47.279Z,5.87
2019-03-11T18:21:16.756Z,2.50
2019-03-11T18:23:48.239Z,2.37
2019-03-11T18:26:16.602Z,2.60
2019-03-11T18:28:46.492Z,5.60
2019-03-11T18:31:14.984Z,6.17
2019-03-11T18:33:43.430Z,2.97
2019-03-11T18:36:11.844Z,5.13
2019-03-11T18:38:40.293Z,5.83
2019-03-11T18:41:08.815Z,4.07
2019-03-11T18:43:42.616Z,5.33
2019-03-11T18:46:07.338Z,6.37
2019-03-11T18:48:35.731Z,3.10
2019-03-11T18:51:10.969Z,4.37
2019-03-11T18:53:34.231Z,3.67
2019-03-11T18:56:02.676Z,4.50
2019-03-11T18:58:31.170Z,1.63
2019-03-11T19:00:59.650Z,4.07
2019-03-11T19:03:28.128Z,4.37
2019-03-11T19:05:56.539Z,5.57
2019-03-11T19:08:24.884Z,5.93
2019-03-11T19:10:55.155Z,5.60
2019-03-11T19:13:27.087Z,5.43
2019-03-11T19:15:55.574Z,6.70
2019-03-11T19:18:23.900Z,3.80
2019-03-11T19:20:52.363Z,3.13
2019-03-11T19:23:20.819Z,4.80
2019-03-11T19:25:49.252Z,2.50
2019-03-11T19:28:18.703Z,2.67
2019-03-11T19:30:47.310Z,3.87
2019-03-11T19:33:15.724Z,3.83
2019-03-11T19:35:44.123Z,3.57
2019-03-11T19:38:14.274Z,1.80
2019-03-11T19:40:42.827Z,3.67
2019-03-11T19:43:13.155Z,2.83
2019-03-11T19:45:41.606Z,3.57
2019-03-11T19:48:09.949Z,3.33
2019-03-11T19:50:38.298Z,3.80
2019-03-11T19:53:06.706Z,3.70
2019-03-11T19:55:35.544Z,2.33
2019-03-11T19:58:04.116Z,7.27
2019-03-11T20:00:32.546Z,4.30
2019-03-11T20:03:01.144Z,3.47
2019-03-11T20:05:31.716Z,6.07
2019-03-11T20:08:00.236Z,2.53
2019-03-11T20:10:28.721Z,4.60
2019-03-11T20:12:57.105Z,4.13
2019-03-11T20:15:26.203Z,4.80
2019-03-11T20:17:54.653Z,5.50
2019-03-11T20:20:23.163Z,3.87
2019-03-11T20:22:52.433Z,4.57
2019-03-11T20:25:30.203Z,4.10
2019-03-11T20:27:58.724Z,4.20
2019-03-11T20:30:27.200Z,5.53
2019-03-11T20:32:56.810Z,4.13
2019-03-11T20:35:30.585Z,4.93
2019-03-11T20:37:59.974Z,8.03
2019-03-11T20:40:28.336Z,8.33
2019-03-11T20:42:56.700Z,6.60
2019-03-11T20:45:25.619Z,3.97
2019-03-11T20:47:59.680Z,7.43
2019-03-11T20:50:37.586Z,6.00
2019-03-11T20:52:58.413Z,4.10
2019-03-11T20:55:26.766Z,11.80
2019-03-11T20:57:55.202Z,4.47
2019-03-11T21:00:24.965Z,3.13
2019-03-11T21:02:53.411Z,5.47
2019-03-11T21:05:41.543Z,2.60
2019-03-11T21:08:12.241Z,8.00
2019-03-11T21:10:44.801Z,3.60
2019-03-11T21:13:15.632Z,4.10
2019-03-11T21:15:47.274Z,7.97
2019-03-11T21:18:17.050Z,4.67
2019-03-11T21:20:45.707Z,5.60
2019-03-11T21:23:14.409Z,4.00
2019-03-11T21:25:42.830Z,6.23
2019-03-11T21:28:11.283Z,6.27
2019-03-11T21:30:40.542Z,6.77
2019-03-11T21:33:12.474Z,3.60
2019-03-11T21:35:40.912Z,3.70
2019-03-11T21:38:09.400Z,4.50
2019-03-11T21:40:37.845Z,6.80
2019-03-11T21:43:06.349Z,35.93
2019-03-11T21:45:35.407Z,6.77
2019-03-11T21:48:03.910Z,8.83
2019-03-11T21:50:32.286Z,3.57
2019-03-11T21:53:00.773Z,4.97
2019-03-11T21:55:29.138Z,4.70
2019-03-11T21:57:57.596Z,6.10
2019-03-11T22:00:34.506Z,5.47
2019-03-11T22:02:56.098Z,7.13
2019-03-11T22:05:29.067Z,5.87
2019-03-11T22:07:57.426Z,6.87
2019-03-11T22:10:25.840Z,4.40
2019-03-11T22:12:54.487Z,6.77
2019-03-11T22:15:26.595Z,8.63
2019-03-11T22:17:54.975Z,4.53
2019-03-11T22:20:23.386Z,7.33
2019-03-11T22:22:51.833Z,7.13
2019-03-11T22:25:21.320Z,4.60
2019-03-11T22:27:49.694Z,5.40
2019-03-11T22:30:20.149Z,5.40
2019-03-11T22:32:48.725Z,3.77
2019-03-11T22:35:17.155Z,8.57
2019-03-11T22:37:45.498Z,7.87
2019-03-11T22:40:15.021Z,41.27
2019-03-11T22:42:43.436Z,13.43
2019-03-11T22:45:16.803Z,9.07
2019-03-11T22:47:44.585Z,4.07
2019-03-11T22:50:13.046Z,7.57
2019-03-11T22:52:41.386Z,6.67
2019-03-11T22:55:11.596Z,10.73
2019-03-11T22:57:40.008Z,4.83
2019-03-11T23:00:14.303Z,6.40
2019-03-11T23:02:42.716Z,8.43
2019-03-11T23:05:11.238Z,9.07
2019-03-11T23:07:39.587Z,12.73
2019-03-11T23:10:09.647Z,10.37
2019-03-11T23:12:38.060Z,8.47
2019-03-11T23:15:08.466Z,8.60
2019-03-11T23:17:37.162Z,4.57
2019-03-11T23:20:09.064Z,10.17
2019-03-11T23:22:37.561Z,16.93
2019-03-11T23:25:07.363Z,4.60
2019-03-11T23:27:35.704Z,9.57
2019-03-11T23:30:10.173Z,7.47
2019-03-11T23:32:38.508Z,7.90
2019-03-11T23:35:07.723Z,3.80
2019-03-11T23:37:36.061Z,9.07
2019-03-11T23:40:05.983Z,5.67
2019-03-11T23:42:34.335Z,8.10
2019-03-11T23:45:02.776Z,9.00
2019-03-11T23:47:31.121Z,5.23
2019-03-11T23:49:59.493Z,12.50
2019-03-11T23:52:27.838Z,6.83
2019-03-11T23:54:56.211Z,4.93
2019-03-11T23:57:24.559Z,8.83
2019-03-11T23:59:52.936Z,10.63
